Stanford, California
Current Conditions -  °F | °C
As of 1:56 AM on Saturday 25 Oct 2014 (Local Time) from KNUQ Reporting Station
Overcast Overcast  
Wind Chill: 65°   Ceiling: 4200
Heat Index: 65°   Visibility: 10mi
Dew Point: 55°   Wind: 7mph
Humidity: 70%   Direction: 110°ESE
Pressure: 29.94"   Gusts: NA
Location:  37.43°N, 122.16°W
Report Text: KNUQ 250856Z 11006KT 10SM BKN042 OVC050 18/13 A2994 RMK AO2 SLP142 T01830128 51003
Loading
Personal Weather Stations






























Interactive Weather Map New forecast layout! Learn more

10-Day Weather Forecast

Advertisements
Track Severe Weather on mobile